createdAt,value
2023-05-11T00:00:16.888Z,221.30
2023-05-11T00:01:16.751Z,223.24
2023-05-11T00:02:16.743Z,222.92
2023-05-11T00:03:16.884Z,222.47
2023-05-11T00:04:16.777Z,222.56
2023-05-11T00:05:16.732Z,221.39
2023-05-11T00:06:16.728Z,221.76
2023-05-11T00:07:16.716Z,221.92
2023-05-11T00:08:17.136Z,221.27
2023-05-11T00:09:16.697Z,222.60
2023-05-11T00:10:16.876Z,222.77
2023-05-11T00:11:16.714Z,221.75
2023-05-11T00:12:16.719Z,222.16
2023-05-11T00:13:16.723Z,220.79
2023-05-11T00:14:16.718Z,221.28
2023-05-11T00:15:16.679Z,221.37
2023-05-11T00:16:16.782Z,222.13
2023-05-11T00:17:16.703Z,221.54
2023-05-11T00:18:16.787Z,221.22
2023-05-11T00:19:16.763Z,222.67
2023-05-11T00:20:17.011Z,222.31
2023-05-11T00:21:16.804Z,222.22
2023-05-11T00:22:16.837Z,222.36
2023-05-11T00:23:16.894Z,221.64
2023-05-11T00:24:16.896Z,220.17
2023-05-11T00:25:16.905Z,221.89
2023-05-11T00:26:16.959Z,221.75
2023-05-11T00:27:16.940Z,222.23
2023-05-11T00:28:16.937Z,222.30
2023-05-11T00:29:16.945Z,222.56
2023-05-11T00:30:17.266Z,221.83
2023-05-11T00:31:17.010Z,222.21
2023-05-11T00:32:17.037Z,220.46
2023-05-11T00:33:17.079Z,221.51
2023-05-11T00:34:17.102Z,220.32
2023-05-11T00:35:17.094Z,221.54
2023-05-11T00:36:17.139Z,221.36
2023-05-11T00:37:17.182Z,222.71
2023-05-11T00:38:17.222Z,221.36
2023-05-11T00:39:17.283Z,219.82
2023-05-11T00:40:17.574Z,221.97
2023-05-11T00:41:17.325Z,221.14
2023-05-11T00:42:17.314Z,221.39
2023-05-11T00:43:17.352Z,221.28
2023-05-11T00:44:17.389Z,220.77
2023-05-11T00:45:17.386Z,220.35
2023-05-11T00:46:17.435Z,219.14
2023-05-11T00:47:17.410Z,221.18
2023-05-11T00:48:17.405Z,221.57
2023-05-11T00:49:17.498Z,220.63
2023-05-11T00:50:17.564Z,219.70
2023-05-11T00:51:17.407Z,220.00
2023-05-11T00:52:17.405Z,220.56
2023-05-11T00:53:17.432Z,221.36
2023-05-11T00:54:17.464Z,221.44
2023-05-11T00:55:17.436Z,220.21
2023-05-11T00:56:17.470Z,220.30
2023-05-11T00:57:17.509Z,221.53
2023-05-11T00:58:17.547Z,219.24
2023-05-11T00:59:17.560Z,220.82
2023-05-11T01:00:17.798Z,219.97
2023-05-11T01:01:17.701Z,220.46
2023-05-11T01:02:17.698Z,221.05
2023-05-11T01:03:17.724Z,221.33
2023-05-11T01:04:17.697Z,219.76
2023-05-11T01:05:17.666Z,220.38
2023-05-11T01:06:17.697Z,219.66
2023-05-11T01:07:17.727Z,220.37
2023-05-11T01:08:17.772Z,220.26
2023-05-11T01:09:17.821Z,219.36
2023-05-11T01:10:17.905Z,219.86
2023-05-11T01:11:17.856Z,220.87
2023-05-11T01:12:17.820Z,220.41
2023-05-11T01:13:17.850Z,219.89
2023-05-11T01:14:17.862Z,220.13
2023-05-11T01:15:17.892Z,218.81
2023-05-11T01:16:17.916Z,219.82
2023-05-11T01:17:17.915Z,220.96
2023-05-11T01:18:17.945Z,219.15
2023-05-11T01:19:17.948Z,220.01
2023-05-11T01:20:18.178Z,218.52
2023-05-11T01:21:17.961Z,220.25
2023-05-11T01:22:17.978Z,219.77
2023-05-11T01:23:17.976Z,219.08
2023-05-11T01:24:17.986Z,219.51
2023-05-11T01:25:17.998Z,220.31
2023-05-11T01:26:18.021Z,219.12
2023-05-11T01:27:18.046Z,219.36
2023-05-11T01:28:18.059Z,221.06
2023-05-11T01:29:18.074Z,219.79
2023-05-11T01:30:18.231Z,219.82
2023-05-11T01:31:18.117Z,219.84
2023-05-11T01:32:18.111Z,219.99
2023-05-11T01:33:18.150Z,220.04
2023-05-11T01:34:18.140Z,219.55
2023-05-11T01:35:18.096Z,220.41
2023-05-11T01:36:18.123Z,218.39
2023-05-11T01:37:18.113Z,219.61
2023-05-11T01:38:18.138Z,218.24
2023-05-11T01:39:18.096Z,219.35
2023-05-11T01:40:18.283Z,219.58
2023-05-11T01:41:18.105Z,218.38
2023-05-11T01:42:18.106Z,218.30
2023-05-11T01:43:18.095Z,218.93
2023-05-11T01:44:18.102Z,219.52
2023-05-11T01:45:18.150Z,218.22
2023-05-11T01:46:18.283Z,218.22
2023-05-11T01:47:18.157Z,218.36
2023-05-11T01:48:18.168Z,217.92
2023-05-11T01:49:18.188Z,218.75
2023-05-11T01:50:18.500Z,219.08
2023-05-11T01:51:18.193Z,217.12
2023-05-11T01:52:18.216Z,218.29
2023-05-11T01:53:18.223Z,217.36
2023-05-11T01:54:18.243Z,217.95
2023-05-11T01:55:18.233Z,216.48
2023-05-11T01:56:18.240Z,218.68
2023-05-11T01:57:18.260Z,218.38
2023-05-11T01:58:18.262Z,216.87
2023-05-11T01:59:18.271Z,219.01
2023-05-11T02:00:18.582Z,218.99
2023-05-11T02:01:18.300Z,217.72
2023-05-11T02:02:18.301Z,218.39
2023-05-11T02:03:18.303Z,216.79
2023-05-11T02:04:18.302Z,217.54
2023-05-11T02:05:18.284Z,217.97
2023-05-11T02:06:18.287Z,218.84
2023-05-11T02:07:18.300Z,217.09
2023-05-11T02:08:18.310Z,217.52
2023-05-11T02:09:18.308Z,217.10
2023-05-11T02:10:18.514Z,220.34
2023-05-11T02:11:18.318Z,217.53
2023-05-11T02:12:18.356Z,217.27
2023-05-11T02:13:18.338Z,217.64
2023-05-11T02:14:18.356Z,217.46
2023-05-11T02:15:18.346Z,217.62
2023-05-11T02:16:18.396Z,217.76
2023-05-11T02:17:18.389Z,218.25
2023-05-11T02:18:18.485Z,218.97
2023-05-11T02:19:18.390Z,218.05
2023-05-11T02:20:18.529Z,217.58
2023-05-11T02:21:18.407Z,216.56
2023-05-11T02:22:18.422Z,217.12
2023-05-11T02:23:18.425Z,217.55
2023-05-11T02:24:18.435Z,217.31
2023-05-11T02:25:18.430Z,215.89
2023-05-11T02:26:18.451Z,216.55
2023-05-11T02:27:18.442Z,216.95
2023-05-11T02:28:18.446Z,218.23
2023-05-11T02:29:18.474Z,216.37
2023-05-11T02:30:18.583Z,217.57
2023-05-11T02:31:18.499Z,216.78
2023-05-11T02:32:18.465Z,217.53
2023-05-11T02:33:18.487Z,215.74
2023-05-11T02:34:18.472Z,216.06
2023-05-11T02:35:18.474Z,216.10
2023-05-11T02:36:18.492Z,216.23
2023-05-11T02:37:18.517Z,217.07
2023-05-11T02:38:18.512Z,217.46
2023-05-11T02:39:18.510Z,216.17
2023-05-11T02:40:18.759Z,217.63
2023-05-11T02:41:18.538Z,215.36
2023-05-11T02:42:18.562Z,216.80
2023-05-11T02:43:18.578Z,217.35
2023-05-11T02:44:18.583Z,216.15
2023-05-11T02:45:18.592Z,216.83
2023-05-11T02:46:18.603Z,215.69
2023-05-11T02:47:18.585Z,216.13
2023-05-11T02:48:18.605Z,216.42
2023-05-11T02:49:18.589Z,212.58
2023-05-11T02:50:18.697Z,209.05
2023-05-11T02:51:18.602Z,199.90
2023-05-11T02:52:18.625Z,188.01
2023-05-11T02:53:18.615Z,178.14
2023-05-11T02:54:18.630Z,165.09
2023-05-11T02:55:18.681Z,154.05
2023-05-11T02:56:18.677Z,143.81
2023-05-11T02:57:18.747Z,133.89
2023-05-11T02:58:18.809Z,123.53
2023-05-11T02:59:18.732Z,119.16
2023-05-11T03:00:18.973Z,109.42
2023-05-11T03:01:18.913Z,100.87
2023-05-11T03:02:18.904Z,94.24
2023-05-11T03:03:18.837Z,86.71
2023-05-11T03:04:18.753Z,79.39
2023-05-11T03:05:18.746Z,75.16
2023-05-11T03:06:18.773Z,67.83
2023-05-11T03:07:18.789Z,62.63
2023-05-11T03:08:18.783Z,56.56
2023-05-11T03:09:18.807Z,52.59
2023-05-11T03:10:19.011Z,48.36
2023-05-11T03:11:18.809Z,42.11
2023-05-11T03:12:18.820Z,39.34
2023-05-11T03:13:18.823Z,33.85
2023-05-11T03:14:18.849Z,30.53
2023-05-11T03:15:18.855Z,25.70
2023-05-11T03:16:20.996Z,25.15
2023-05-11T03:17:18.930Z,26.75
2023-05-11T03:18:19.013Z,25.57
2023-05-11T03:19:19.076Z,26.96
2023-05-11T03:20:19.299Z,26.17
2023-05-11T03:21:19.201Z,27.30
2023-05-11T03:22:19.269Z,25.00
2023-05-11T03:23:19.349Z,27.02
2023-05-11T03:24:19.404Z,26.67
2023-05-11T03:25:19.476Z,27.37
2023-05-11T03:26:19.557Z,29.72
2023-05-11T03:27:19.627Z,27.56
2023-05-11T03:28:19.705Z,29.42
2023-05-11T03:29:19.782Z,28.87
2023-05-11T03:30:20.019Z,24.69
2023-05-11T03:31:19.927Z,26.48
2023-05-11T03:32:20.054Z,29.10
2023-05-11T03:33:20.088Z,26.76
2023-05-11T03:34:20.154Z,27.72
2023-05-11T03:35:20.235Z,26.20
2023-05-11T03:36:20.285Z,26.77
2023-05-11T03:37:20.378Z,26.24
2023-05-11T03:38:20.413Z,27.69
2023-05-11T03:39:20.499Z,28.40
2023-05-11T03:40:20.565Z,26.82
2023-05-11T03:41:20.614Z,30.54
2023-05-11T03:42:20.682Z,29.82
2023-05-11T03:43:20.750Z,31.09
2023-05-11T03:44:20.796Z,29.57
2023-05-11T03:45:20.853Z,30.04
2023-05-11T03:46:20.913Z,30.82
2023-05-11T03:47:20.915Z,31.22
2023-05-11T03:48:20.897Z,30.41
2023-05-11T03:49:20.935Z,30.63
2023-05-11T03:50:20.988Z,28.05
2023-05-11T03:51:20.983Z,30.31
2023-05-11T03:52:21.040Z,31.97
2023-05-11T03:53:21.130Z,31.21
2023-05-11T03:54:21.114Z,31.32
2023-05-11T03:55:21.156Z,31.83
2023-05-11T03:56:21.200Z,33.10
2023-05-11T03:57:21.245Z,33.26
2023-05-11T03:58:21.262Z,34.52
2023-05-11T03:59:21.344Z,33.99
2023-05-11T04:00:21.343Z,35.11
2023-05-11T04:01:21.361Z,35.69
2023-05-11T04:02:21.409Z,36.59
2023-05-11T04:03:21.557Z,38.05
2023-05-11T04:04:21.513Z,38.57
2023-05-11T04:05:21.455Z,39.02
2023-05-11T04:06:21.489Z,38.99
2023-05-11T04:07:21.495Z,41.03
2023-05-11T04:08:21.507Z,40.22
2023-05-11T04:09:21.535Z,41.07
2023-05-11T04:10:21.541Z,40.89
2023-05-11T04:11:21.593Z,41.37
2023-05-11T04:12:21.597Z,42.18
2023-05-11T04:13:21.578Z,42.23
2023-05-11T04:14:21.600Z,42.43
2023-05-11T04:15:21.613Z,42.72
2023-05-11T04:16:21.633Z,43.63
2023-05-11T04:17:21.620Z,44.92
2023-05-11T04:18:21.668Z,46.61
2023-05-11T04:19:21.639Z,46.63
2023-05-11T04:20:21.666Z,46.83
2023-05-11T04:21:21.657Z,48.13
2023-05-11T04:22:21.680Z,48.18
2023-05-11T04:23:21.697Z,48.35
2023-05-11T04:24:21.706Z,48.93
2023-05-11T04:25:21.715Z,50.57
2023-05-11T04:26:21.706Z,54.45
2023-05-11T04:27:21.731Z,56.83
2023-05-11T04:28:21.725Z,59.40
2023-05-11T04:29:21.731Z,60.68
2023-05-11T04:30:22.010Z,62.40
2023-05-11T04:31:21.788Z,65.46
2023-05-11T04:32:21.787Z,67.77
2023-05-11T04:33:21.762Z,71.13
2023-05-11T04:34:21.775Z,75.10
2023-05-11T04:35:21.780Z,79.12
2023-05-11T04:36:21.775Z,81.07
2023-05-11T04:37:21.806Z,86.90
2023-05-11T04:38:21.792Z,90.16
2023-05-11T04:39:21.793Z,93.15
2023-05-11T04:40:21.815Z,99.77
2023-05-11T04:41:21.823Z,105.40
2023-05-11T04:42:21.823Z,110.33
2023-05-11T04:43:21.900Z,114.74
2023-05-11T04:44:21.862Z,119.38
2023-05-11T04:45:21.899Z,123.42
2023-05-11T04:46:22.026Z,127.07
2023-05-11T04:47:21.942Z,131.03
2023-05-11T04:48:21.956Z,134.03
2023-05-11T04:49:21.944Z,136.12
2023-05-11T04:50:21.997Z,138.55
2023-05-11T04:51:22.004Z,141.14
2023-05-11T04:52:22.025Z,142.72
2023-05-11T04:53:22.056Z,142.81
2023-05-11T04:54:22.067Z,143.43
2023-05-11T04:55:22.101Z,144.55
2023-05-11T04:56:22.092Z,147.01
2023-05-11T04:57:22.089Z,149.99
2023-05-11T04:58:22.107Z,150.41
2023-05-11T04:59:22.104Z,150.38
2023-05-11T05:01:22.136Z,147.88
2023-05-11T05:02:22.145Z,146.53
2023-05-11T05:03:22.156Z,147.01
2023-05-11T05:04:22.143Z,146.23
2023-05-11T05:05:22.170Z,143.89
2023-05-11T05:06:22.167Z,143.11
2023-05-11T05:07:22.192Z,141.58
2023-05-11T05:08:22.205Z,139.40
2023-05-11T05:09:22.202Z,140.21
2023-05-11T05:10:22.216Z,139.47
2023-05-11T05:11:22.215Z,138.52
2023-05-11T05:12:22.254Z,135.30
2023-05-11T05:13:22.284Z,134.80
2023-05-11T05:14:22.346Z,134.45
2023-05-11T05:15:22.384Z,132.83
2023-05-11T05:16:22.523Z,130.94
2023-05-11T05:17:22.503Z,131.66
2023-05-11T05:18:22.553Z,132.07
2023-05-11T05:19:22.570Z,133.16
2023-05-11T05:20:22.631Z,132.42
2023-05-11T05:21:22.657Z,133.67
2023-05-11T05:22:22.709Z,135.05
2023-05-11T05:23:22.705Z,136.24
2023-05-11T05:24:22.751Z,136.93
2023-05-11T05:25:22.789Z,138.08
2023-05-11T05:26:22.840Z,137.39
2023-05-11T05:27:22.805Z,137.50
2023-05-11T05:28:22.809Z,137.81
2023-05-11T05:29:22.817Z,137.96
2023-05-11T05:30:22.845Z,139.78
2023-05-11T05:31:22.901Z,141.92
2023-05-11T05:32:22.864Z,142.47
2023-05-11T05:33:22.873Z,142.58
2023-05-11T05:34:22.865Z,143.28
2023-05-11T05:35:22.873Z,145.04
2023-05-11T05:36:22.861Z,145.19
2023-05-11T05:37:22.884Z,146.06
2023-05-11T05:38:22.961Z,147.99
2023-05-11T05:39:22.873Z,152.00
2023-05-11T05:40:22.885Z,160.70
2023-05-11T05:41:22.914Z,145.81
2023-05-11T05:42:22.883Z,148.79
2023-05-11T05:43:22.886Z,154.92
2023-05-11T05:44:22.892Z,162.67
2023-05-11T05:45:22.902Z,146.10
2023-05-11T05:46:22.913Z,150.76
2023-05-11T05:47:22.911Z,159.55
2023-05-11T05:48:23.077Z,173.12
2023-05-11T05:49:22.916Z,190.40
2023-05-11T05:50:22.941Z,198.32
2023-05-11T05:51:22.920Z,213.73
2023-05-11T05:52:22.901Z,224.13
2023-05-11T05:53:22.961Z,239.59
2023-05-11T05:54:22.901Z,245.55
2023-05-11T05:55:22.910Z,246.91
2023-05-11T05:56:22.889Z,247.78
2023-05-11T05:57:22.933Z,249.96
2023-05-11T05:58:22.895Z,250.05
2023-05-11T05:59:22.944Z,250.65
2023-05-11T06:00:22.913Z,251.27
2023-05-11T06:01:22.940Z,253.03
2023-05-11T06:02:22.969Z,257.40
2023-05-11T06:03:23.021Z,249.92
2023-05-11T06:04:22.920Z,249.75
2023-05-11T06:05:22.930Z,249.64
2023-05-11T06:06:22.889Z,250.05
2023-05-11T06:07:22.873Z,250.00
2023-05-11T06:08:22.906Z,250.00
2023-05-11T06:09:22.861Z,250.30
2023-05-11T06:10:22.863Z,250.41
2023-05-11T06:11:22.852Z,250.62
2023-05-11T06:12:22.819Z,251.49
2023-05-11T06:13:22.818Z,251.01
2023-05-11T06:14:22.828Z,254.11
2023-05-11T06:15:22.874Z,247.63
2023-05-11T06:16:22.825Z,249.42
2023-05-11T06:17:22.801Z,249.10
2023-05-11T06:18:22.801Z,249.74
2023-05-11T06:19:22.817Z,248.05
2023-05-11T06:20:22.813Z,247.86
2023-05-11T06:21:22.780Z,249.87
2023-05-11T06:22:22.800Z,250.00
2023-05-11T06:23:22.858Z,249.04
2023-05-11T06:24:22.987Z,249.66
2023-05-11T06:25:23.008Z,250.00
2023-05-11T06:26:23.034Z,250.04
2023-05-11T06:27:23.108Z,249.21
2023-05-11T06:28:23.175Z,250.00
2023-05-11T06:29:23.226Z,250.00
2023-05-11T06:30:23.503Z,250.00
2023-05-11T06:31:23.447Z,248.46
2023-05-11T06:32:23.439Z,247.72
2023-05-11T06:33:23.432Z,247.75
2023-05-11T06:34:23.413Z,247.72
2023-05-11T06:35:23.432Z,246.95
2023-05-11T06:36:23.405Z,247.47
2023-05-11T06:37:23.426Z,246.96
2023-05-11T06:38:23.419Z,246.90
2023-05-11T06:39:23.417Z,247.00
2023-05-11T06:40:23.415Z,247.14
2023-05-11T06:41:23.415Z,247.78
2023-05-11T06:42:23.414Z,248.50
2023-05-11T06:43:23.437Z,249.33
2023-05-11T06:44:23.399Z,250.16
2023-05-11T06:45:23.449Z,248.84
2023-05-11T06:46:23.446Z,247.87
2023-05-11T06:47:23.490Z,246.16
2023-05-11T06:48:23.414Z,243.72
2023-05-11T06:49:23.385Z,241.78
2023-05-11T06:50:25.085Z,238.74
2023-05-11T06:51:23.367Z,239.94
2023-05-11T06:52:23.604Z,239.69
2023-05-11T06:53:23.365Z,239.52
2023-05-11T06:54:23.364Z,238.27
2023-05-11T06:55:23.436Z,236.95
2023-05-11T06:56:23.365Z,237.31
2023-05-11T06:57:23.342Z,235.98
2023-05-11T06:58:23.348Z,235.05
2023-05-11T06:59:23.326Z,236.03
2023-05-11T07:00:23.322Z,237.96
2023-05-11T07:01:23.499Z,239.09
2023-05-11T07:02:23.359Z,238.99
2023-05-11T07:03:23.377Z,237.64
2023-05-11T07:04:23.340Z,237.76
2023-05-11T07:05:23.290Z,238.10
2023-05-11T07:06:23.365Z,237.82
2023-05-11T07:07:23.270Z,238.13
2023-05-11T07:08:23.278Z,237.82
2023-05-11T07:09:23.256Z,238.25
2023-05-11T07:10:23.256Z,238.88
2023-05-11T07:11:23.279Z,238.84
2023-05-11T07:12:23.228Z,240.94
2023-05-11T07:13:23.269Z,242.48
2023-05-11T07:14:23.222Z,239.58
2023-05-11T07:15:23.212Z,239.03
2023-05-11T07:16:23.302Z,239.23
2023-05-11T07:17:23.292Z,237.00
2023-05-11T07:18:23.278Z,237.02
2023-05-11T07:19:23.275Z,236.51
2023-05-11T07:20:23.224Z,235.69
2023-05-11T07:21:23.281Z,234.75
2023-05-11T07:22:23.270Z,234.81
2023-05-11T07:23:23.262Z,234.87
2023-05-11T07:24:23.273Z,234.76
2023-05-11T07:25:23.267Z,235.27
2023-05-11T07:26:23.263Z,235.50
2023-05-11T07:27:23.267Z,234.04
2023-05-11T07:28:23.258Z,234.84
2023-05-11T07:29:23.283Z,234.91
2023-05-11T07:30:23.660Z,232.34
2023-05-11T07:31:23.343Z,230.25
2023-05-11T07:32:23.308Z,228.89
2023-05-11T07:33:23.286Z,229.69
2023-05-11T07:34:23.259Z,228.01
2023-05-11T07:35:24.108Z,226.28
2023-05-11T07:36:23.258Z,227.67
2023-05-11T07:37:23.255Z,218.85
2023-05-11T07:38:23.263Z,201.65
2023-05-11T07:39:23.243Z,189.60
2023-05-11T07:40:23.340Z,185.40
2023-05-11T07:41:23.292Z,178.21
2023-05-11T07:42:23.321Z,174.46
2023-05-11T07:43:23.407Z,171.22
2023-05-11T07:44:23.470Z,167.96
2023-05-11T07:45:23.505Z,166.56
2023-05-11T07:46:23.640Z,164.84
2023-05-11T07:47:23.693Z,164.43
2023-05-11T07:48:23.711Z,163.48
2023-05-11T07:49:31.348Z,163.41
2023-05-11T07:50:25.075Z,163.30
2023-05-11T07:51:23.748Z,162.95
2023-05-11T07:52:23.738Z,162.80
2023-05-11T07:53:23.736Z,163.57
2023-05-11T07:54:23.740Z,163.88
2023-05-11T07:55:23.786Z,162.35
2023-05-11T07:56:23.744Z,162.64
2023-05-11T07:57:23.786Z,162.81
2023-05-11T07:58:23.770Z,162.84
2023-05-11T07:59:24.377Z,162.99
2023-05-11T08:00:24.023Z,163.02
2023-05-11T08:01:23.759Z,163.34
2023-05-11T08:02:23.790Z,163.54
2023-05-11T08:03:23.751Z,164.22
2023-05-11T08:04:23.780Z,163.31
2023-05-11T08:05:23.765Z,165.21
2023-05-11T08:06:23.767Z,163.36
2023-05-11T08:07:23.720Z,163.06
2023-05-11T08:08:23.740Z,161.03
2023-05-11T08:09:23.708Z,158.34
2023-05-11T08:10:23.752Z,155.28
2023-05-11T08:11:23.741Z,153.27
2023-05-11T08:12:23.751Z,151.53
2023-05-11T08:13:23.707Z,151.53
2023-05-11T08:14:23.709Z,150.11
2023-05-11T08:15:23.720Z,148.54
2023-05-11T08:16:23.799Z,147.96
2023-05-11T08:17:23.819Z,147.10
2023-05-11T08:18:23.781Z,147.44
2023-05-11T08:19:23.814Z,147.61
2023-05-11T08:20:23.958Z,148.31
2023-05-11T08:21:23.821Z,146.61
2023-05-11T08:22:23.847Z,145.86
2023-05-11T08:23:23.844Z,145.89
2023-05-11T08:24:23.994Z,145.87
2023-05-11T08:25:23.924Z,144.50
2023-05-11T08:26:23.841Z,145.47
2023-05-11T08:27:23.805Z,141.88
2023-05-11T08:28:23.960Z,140.17
2023-05-11T08:29:23.866Z,141.19
2023-05-11T08:30:23.800Z,140.88
2023-05-11T08:31:24.010Z,138.85
2023-05-11T08:32:23.886Z,137.58
2023-05-11T08:33:36.459Z,135.22
2023-05-11T08:34:25.015Z,137.57
2023-05-11T08:35:23.851Z,137.85
2023-05-11T08:36:23.804Z,135.46
2023-05-11T08:37:23.754Z,133.40
2023-05-11T08:38:23.794Z,131.95
2023-05-11T08:39:38.916Z,128.35
2023-05-11T08:40:24.731Z,127.44
2023-05-11T08:41:23.721Z,125.31
2023-05-11T08:42:23.714Z,124.01
2023-05-11T08:43:23.721Z,120.82
2023-05-11T08:44:23.728Z,126.94
2023-05-11T08:45:23.732Z,128.10
2023-05-11T08:46:23.823Z,125.77
2023-05-11T08:47:24.102Z,120.37
2023-05-11T08:48:23.751Z,120.02
2023-05-11T08:49:23.788Z,117.19
2023-05-11T08:50:23.821Z,116.70
2023-05-11T08:51:23.797Z,114.37
2023-05-11T08:52:23.779Z,114.45
2023-05-11T08:53:23.803Z,114.83
2023-05-11T08:54:23.793Z,114.05
2023-05-11T08:55:23.800Z,115.57
2023-05-11T08:56:23.824Z,116.56
2023-05-11T08:57:23.811Z,116.86
2023-05-11T08:58:23.817Z,117.06
2023-05-11T08:59:23.881Z,116.25
2023-05-11T09:00:23.829Z,118.39
2023-05-11T09:01:23.903Z,118.44
2023-05-11T09:02:23.846Z,118.52
2023-05-11T09:03:23.970Z,119.02
2023-05-11T09:04:23.908Z,119.30
2023-05-11T09:05:23.952Z,121.72
2023-05-11T09:06:23.937Z,118.58
2023-05-11T09:07:23.900Z,119.60
2023-05-11T09:08:23.845Z,122.03
2023-05-11T09:09:23.932Z,125.76
2023-05-11T09:10:23.866Z,131.31
2023-05-11T09:11:24.043Z,132.94
2023-05-11T09:12:23.908Z,132.25
2023-05-11T09:13:23.860Z,132.29
2023-05-11T09:15:23.882Z,131.05
2023-05-11T09:16:36.184Z,131.03
2023-05-11T09:17:24.932Z,132.28
2023-05-11T09:18:23.870Z,130.62
2023-05-11T09:19:23.845Z,129.13
2023-05-11T09:20:23.871Z,129.93
2023-05-11T09:21:23.858Z,129.44
2023-05-11T09:22:23.900Z,129.95
2023-05-11T09:23:23.842Z,130.02
2023-05-11T09:24:23.848Z,130.40
2023-05-11T09:25:23.922Z,131.08
2023-05-11T09:26:23.882Z,132.63
2023-05-11T09:27:23.883Z,134.87
2023-05-11T09:28:25.565Z,137.20
2023-05-11T09:29:23.974Z,138.83
2023-05-11T09:30:24.087Z,142.44
2023-05-11T09:31:23.944Z,144.28
2023-05-11T09:32:24.006Z,145.36
2023-05-11T09:33:23.875Z,146.75
2023-05-11T09:34:23.926Z,145.99
2023-05-11T09:35:23.906Z,148.40
2023-05-11T09:36:23.903Z,148.11
2023-05-11T09:37:23.910Z,147.74
2023-05-11T09:38:23.891Z,147.18
2023-05-11T09:39:35.617Z,149.15
2023-05-11T09:40:33.554Z,149.17
2023-05-11T09:41:25.021Z,149.19
2023-05-11T09:42:23.936Z,149.27
2023-05-11T09:43:24.019Z,149.62
2023-05-11T09:44:23.965Z,149.74
2023-05-11T09:45:23.946Z,146.77
2023-05-11T09:46:24.070Z,131.30
2023-05-11T09:47:23.989Z,117.64
2023-05-11T09:48:23.957Z,112.28
2023-05-11T09:49:23.976Z,109.74
2023-05-11T09:50:26.676Z,110.06
2023-05-11T09:51:23.954Z,110.10
2023-05-11T09:52:24.084Z,108.89
2023-05-11T09:53:25.409Z,110.07
2023-05-11T09:54:24.137Z,110.08
2023-05-11T09:55:24.184Z,110.07
2023-05-11T09:56:24.340Z,108.99
2023-05-11T09:57:24.372Z,108.30
2023-05-11T09:58:24.269Z,109.24
2023-05-11T09:59:26.241Z,108.61
2023-05-11T10:00:24.324Z,108.00
2023-05-11T10:01:24.425Z,107.61
2023-05-11T10:02:24.546Z,109.09
2023-05-11T10:03:24.587Z,108.10
2023-05-11T10:04:24.763Z,106.03
2023-05-11T10:05:24.562Z,106.49
2023-05-11T10:06:24.589Z,106.54
2023-05-11T10:07:24.573Z,106.79
2023-05-11T10:08:24.597Z,108.50
2023-05-11T10:09:24.594Z,107.75
2023-05-11T10:10:24.678Z,110.25
2023-05-11T10:11:26.244Z,111.56
2023-05-11T10:12:24.620Z,112.27
2023-05-11T10:13:24.643Z,109.33
2023-05-11T10:14:24.646Z,109.60
2023-05-11T10:15:24.651Z,106.03
2023-05-11T10:16:24.718Z,103.27
2023-05-11T10:17:24.750Z,102.14
2023-05-11T10:18:24.864Z,100.86
2023-05-11T10:19:24.842Z,99.16
2023-05-11T10:20:24.940Z,96.08
2023-05-11T10:21:24.963Z,95.58
2023-05-11T10:22:25.121Z,95.73
2023-05-11T10:23:25.076Z,94.85
2023-05-11T10:24:25.132Z,95.35
2023-05-11T10:25:25.186Z,95.25
2023-05-11T10:26:25.233Z,96.39
2023-05-11T10:27:25.325Z,95.46
2023-05-11T10:28:25.354Z,97.16
2023-05-11T10:29:25.385Z,96.55
2023-05-11T10:30:25.439Z,94.24
2023-05-11T10:31:25.540Z,94.35
2023-05-11T10:32:25.692Z,94.49
2023-05-11T10:33:25.518Z,94.02
2023-05-11T10:34:25.544Z,91.91
2023-05-11T10:35:25.526Z,96.75
2023-05-11T10:36:25.543Z,97.43
2023-05-11T10:37:25.549Z,99.26
2023-05-11T10:38:25.553Z,99.41
2023-05-11T10:39:25.574Z,101.00
2023-05-11T10:40:25.557Z,102.89
2023-05-11T10:41:25.591Z,105.61
2023-05-11T10:42:25.623Z,107.15
2023-05-11T10:43:25.577Z,109.77
2023-05-11T10:44:25.597Z,109.81
2023-05-11T10:45:49.660Z,25.00
2023-05-11T10:46:49.571Z,25.00
2023-05-11T10:47:49.613Z,25.00
2023-05-11T10:48:49.538Z,25.00
2023-05-11T10:49:49.580Z,25.00
2023-05-11T10:50:49.482Z,33.52
2023-05-11T10:51:49.428Z,29.86
2023-05-11T10:52:49.389Z,35.28
2023-05-11T10:53:49.424Z,28.45
2023-05-11T10:54:49.359Z,27.10
2023-05-11T10:55:49.306Z,28.61
2023-05-11T10:56:49.277Z,27.07
2023-05-11T10:57:49.393Z,25.32
2023-05-11T10:58:49.206Z,25.42
2023-05-11T10:59:49.200Z,26.42
2023-05-11T11:00:49.174Z,27.71
2023-05-11T11:01:49.186Z,29.82
2023-05-11T11:02:49.334Z,31.58
2023-05-11T11:03:49.045Z,30.15
2023-05-11T11:04:49.090Z,29.07
2023-05-11T11:05:49.192Z,26.16
2023-05-11T11:06:48.986Z,25.90
2023-05-11T11:07:49.296Z,18.00
2023-05-11T11:08:48.911Z,15.92
2023-05-11T11:09:49.105Z,26.35
2023-05-11T11:10:48.824Z,26.37
2023-05-11T11:11:48.803Z,30.87
2023-05-11T11:12:48.786Z,29.43
2023-05-11T11:13:48.718Z,30.17
2023-05-11T11:14:48.684Z,25.00
2023-05-11T11:15:48.671Z,25.09
2023-05-11T11:16:48.631Z,23.09
2023-05-11T11:17:48.574Z,13.65
2023-05-11T11:18:48.559Z,4.95
2023-05-11T11:19:48.491Z,3.89
2023-05-11T11:20:48.634Z,25.00
2023-05-11T11:21:48.443Z,26.85
2023-05-11T11:22:48.442Z,29.46
2023-05-11T11:23:48.379Z,34.94
2023-05-11T11:24:48.385Z,40.83
2023-05-11T11:25:48.417Z,53.06
2023-05-11T11:26:48.594Z,60.91
2023-05-11T11:27:48.570Z,73.65
2023-05-11T11:28:48.583Z,94.91
2023-05-11T11:29:48.553Z,107.96
2023-05-11T11:30:48.624Z,103.92
2023-05-11T11:31:48.642Z,114.27
2023-05-11T11:32:48.637Z,115.54
2023-05-11T11:33:48.613Z,114.15
2023-05-11T11:34:48.606Z,118.12
2023-05-11T11:35:48.582Z,120.85
2023-05-11T11:36:48.524Z,121.80
2023-05-11T11:37:48.526Z,122.46
2023-05-11T11:38:48.463Z,125.90
2023-05-11T11:39:48.441Z,120.08
2023-05-11T11:40:51.297Z,122.40
2023-05-11T11:41:48.380Z,128.90
2023-05-11T11:42:48.358Z,127.94
2023-05-11T11:43:48.322Z,128.47
2023-05-11T11:44:48.292Z,132.26
2023-05-11T11:45:48.269Z,134.01
2023-05-11T11:46:48.229Z,134.37
2023-05-11T11:47:48.224Z,136.11
2023-05-11T11:48:48.148Z,138.91
2023-05-11T11:49:48.156Z,143.84
2023-05-11T11:50:48.112Z,156.88
2023-05-11T11:51:48.060Z,162.78
2023-05-11T11:52:48.014Z,159.54
2023-05-11T11:53:47.971Z,163.60
2023-05-11T11:54:47.938Z,172.75
2023-05-11T11:55:47.893Z,178.72
2023-05-11T11:56:47.861Z,174.64
2023-05-11T11:57:47.826Z,173.21
2023-05-11T11:58:47.769Z,178.62
2023-05-11T11:59:47.741Z,178.05
2023-05-11T12:00:47.715Z,176.56
2023-05-11T12:01:47.685Z,178.69
2023-05-11T12:02:47.693Z,178.90
2023-05-11T12:03:47.772Z,181.99
2023-05-11T12:04:47.688Z,182.02
2023-05-11T12:05:47.538Z,172.22
2023-05-11T12:06:47.512Z,169.76
2023-05-11T12:07:47.511Z,169.38
2023-05-11T12:08:47.442Z,172.56
2023-05-11T12:09:47.474Z,174.81
2023-05-11T12:10:47.368Z,173.96
2023-05-11T12:11:47.365Z,170.90
2023-05-11T12:12:47.326Z,169.59
2023-05-11T12:13:47.285Z,171.11
2023-05-11T12:14:47.256Z,167.89
2023-05-11T12:15:47.227Z,172.19
2023-05-11T12:16:47.213Z,167.94
2023-05-11T12:17:47.197Z,166.93
2023-05-11T12:18:47.147Z,166.88
2023-05-11T12:19:47.087Z,166.29
2023-05-11T12:20:47.085Z,169.37
2023-05-11T12:21:47.072Z,166.84
2023-05-11T12:22:47.086Z,166.46
2023-05-11T12:23:47.071Z,163.87
2023-05-11T12:24:47.078Z,163.43
2023-05-11T12:25:47.088Z,166.54
2023-05-11T12:26:47.095Z,167.56
2023-05-11T12:27:47.076Z,164.62
2023-05-11T12:28:47.105Z,159.89
2023-05-11T12:29:47.074Z,160.83
2023-05-11T12:30:47.072Z,157.13
2023-05-11T12:31:47.198Z,158.73
2023-05-11T12:32:47.124Z,161.05
2023-05-11T12:33:47.082Z,156.48
2023-05-11T12:34:47.092Z,162.32
2023-05-11T12:35:47.082Z,172.86